createdAt,value
2022-09-29T00:00:36.315Z,9.4
2022-09-29T00:05:36.383Z,9.4
2022-09-29T00:10:36.414Z,9.3
2022-09-29T00:15:37.033Z,8.9
2022-09-29T00:20:38.909Z,8.9
2022-09-29T00:26:05.193Z,8.9
2022-09-29T00:30:37.119Z,8.9
2022-09-29T00:35:36.407Z,9
2022-09-29T00:40:36.537Z,9.3
2022-09-29T00:45:36.408Z,9.3
2022-09-29T00:50:36.414Z,9.7
2022-09-29T00:55:36.495Z,9.8
2022-09-29T01:00:36.475Z,9.8
2022-09-29T01:05:36.476Z,9.8
2022-09-29T01:10:36.388Z,9.8
2022-09-29T01:15:36.458Z,9.7
2022-09-29T01:20:36.434Z,9.7
2022-09-29T01:25:36.449Z,10
2022-09-29T01:30:36.360Z,10
2022-09-29T01:35:36.442Z,10.1
2022-09-29T01:40:38.681Z,10.5
2022-09-29T01:45:36.424Z,11.3
2022-09-29T01:50:36.402Z,11.3
2022-09-29T01:55:36.428Z,11.3
2022-09-29T02:00:36.432Z,11
2022-09-29T02:05:38.214Z,10.4
2022-09-29T02:10:36.411Z,10.4
2022-09-29T02:15:36.341Z,9.1
2022-09-29T02:20:36.459Z,9.1
2022-09-29T02:25:36.410Z,9.1
2022-09-29T02:30:36.361Z,9.1
2022-09-29T02:36:12.695Z,9.4
2022-09-29T02:40:36.518Z,9.5
2022-09-29T02:45:36.418Z,9.6
2022-09-29T02:50:36.476Z,9.8
2022-09-29T02:55:36.431Z,9.8
2022-09-29T03:00:36.444Z,9.8
2022-09-29T03:05:36.373Z,9.6
2022-09-29T03:10:36.389Z,8.6
2022-09-29T03:15:36.526Z,8.1
2022-09-29T03:20:36.428Z,8.1
2022-09-29T03:25:36.480Z,8.1
2022-09-29T03:30:36.395Z,8.1
2022-09-29T03:35:36.413Z,9.5
2022-09-29T03:40:36.517Z,9.5
2022-09-29T03:45:36.394Z,9.8
2022-09-29T03:50:36.455Z,9.9
2022-09-29T03:55:36.438Z,10.3
2022-09-29T04:00:36.509Z,10.3
2022-09-29T04:05:36.476Z,10.3
2022-09-29T04:10:36.410Z,10.3
2022-09-29T04:15:36.383Z,10.7
2022-09-29T04:20:36.413Z,11.2
2022-09-29T04:25:36.459Z,11.5
2022-09-29T04:30:36.391Z,11.5
2022-09-29T04:35:39.421Z,11.5
2022-09-29T04:40:42.729Z,11.5
2022-09-29T04:45:36.423Z,11.6
2022-09-29T04:50:36.472Z,11.6
2022-09-29T04:55:36.472Z,10.4
2022-09-29T05:00:36.456Z,10.4
2022-09-29T05:05:36.506Z,11.1
2022-09-29T05:10:36.510Z,11.6
2022-09-29T05:15:36.423Z,11.6
2022-09-29T05:20:50.673Z,11.1
2022-09-29T05:25:36.452Z,10.7
2022-09-29T05:30:36.465Z,10.8
2022-09-29T05:35:36.860Z,10.8
2022-09-29T05:55:36.516Z,9.7
2022-09-29T06:00:37.875Z,10.7
2022-09-29T06:05:36.526Z,11.7
2022-09-29T06:10:36.477Z,11.7
2022-09-29T06:15:36.674Z,11.7
2022-09-29T06:20:36.691Z,11.7
2022-09-29T06:25:36.546Z,11.7
2022-09-29T06:30:36.409Z,11.7
2022-09-29T06:35:36.513Z,11.7
2022-09-29T06:40:36.657Z,11.8
2022-09-29T06:45:36.545Z,11.8
2022-09-29T06:50:36.575Z,11.8
2022-09-29T06:55:36.516Z,11.8
2022-09-29T07:00:36.539Z,11.8
2022-09-29T07:05:36.583Z,12.2
2022-09-29T07:10:36.519Z,12.5
2022-09-29T07:15:36.482Z,12.9
2022-09-29T07:20:36.487Z,12.9
2022-09-29T07:25:50.869Z,13.3
2022-09-29T07:30:42.532Z,14.4
2022-09-29T07:35:40.631Z,14.6
2022-09-29T07:40:36.564Z,14.6
2022-09-29T07:45:36.588Z,14.4
2022-09-29T07:50:36.521Z,14
2022-09-29T07:55:36.531Z,14.5
2022-09-29T08:00:36.482Z,14
2022-09-29T08:05:36.559Z,13.4
2022-09-29T08:10:51.351Z,13.3
2022-09-29T08:15:36.502Z,12.8
2022-09-29T08:20:36.690Z,12.8
2022-09-29T08:25:36.664Z,12.8
2022-09-29T08:30:36.470Z,12.8
2022-09-29T08:35:36.606Z,12.6
2022-09-29T08:40:36.676Z,12.6
2022-09-29T08:45:36.682Z,12.6
2022-09-29T08:50:36.516Z,12.4
2022-09-29T08:55:36.627Z,12.1
2022-09-29T09:00:36.600Z,11.5
2022-09-29T09:05:36.665Z,10.9
2022-09-29T09:10:36.618Z,10
2022-09-29T09:15:36.460Z,9.1
2022-09-29T09:20:36.488Z,7.9
2022-09-29T09:25:36.587Z,7
2022-09-29T09:30:36.513Z,7
2022-09-29T09:35:37.129Z,6.4
2022-09-29T09:40:36.541Z,5.6
2022-09-29T09:45:36.679Z,5.2
2022-09-29T09:50:36.511Z,5
2022-09-29T09:55:36.581Z,4.5
2022-09-29T10:00:36.567Z,4.4
2022-09-29T10:05:36.599Z,4.4
2022-09-29T10:10:37.662Z,4.4
2022-09-29T10:15:36.472Z,4.4
2022-09-29T10:20:36.556Z,4.4
2022-09-29T10:25:36.590Z,4.1
2022-09-29T10:30:36.675Z,4.2
2022-09-29T10:35:36.575Z,4.1
2022-09-29T10:40:36.587Z,4.1
2022-09-29T10:45:36.535Z,4.1
2022-09-29T10:50:39.553Z,3.8
2022-09-29T10:55:36.505Z,4
2022-09-29T11:00:36.545Z,4
2022-09-29T11:05:37.972Z,3.9
2022-09-29T11:10:36.547Z,3.9
2022-09-29T11:15:36.536Z,3.8
2022-09-29T11:20:36.541Z,3.9
2022-09-29T11:25:36.544Z,4
2022-09-29T11:30:36.529Z,4.6
2022-09-29T11:35:36.558Z,4
2022-09-29T11:40:36.591Z,4.6
2022-09-29T11:45:36.547Z,4.9
2022-09-29T11:50:36.659Z,4.9
2022-09-29T11:55:36.650Z,4.6
2022-09-29T12:00:36.526Z,4
2022-09-29T12:05:36.524Z,4
2022-09-29T12:10:36.553Z,4
2022-09-29T12:15:42.574Z,4
2022-09-29T12:20:36.559Z,4
2022-09-29T12:25:36.574Z,4.1
2022-09-29T12:30:36.514Z,4.4
2022-09-29T12:35:36.530Z,4.5
2022-09-29T12:40:36.573Z,4.8
2022-09-29T12:45:37.517Z,5.5
2022-09-29T12:50:36.615Z,5.7
2022-09-29T13:00:36.567Z,7.2
2022-09-29T13:05:36.727Z,7.15
2022-09-29T13:10:36.750Z,7.1
2022-09-29T13:15:36.553Z,6.75
2022-09-29T13:20:36.561Z,6.4
2022-09-29T13:25:36.587Z,6.2
2022-09-29T13:30:36.636Z,6.1
2022-09-29T13:35:36.599Z,6
2022-09-29T13:40:36.668Z,5.7
2022-09-29T13:45:36.527Z,5.5
2022-09-29T13:50:36.578Z,4.2
2022-09-29T13:55:36.585Z,4
2022-09-29T14:00:36.719Z,4
2022-09-29T14:05:36.712Z,4
2022-09-29T14:10:36.627Z,4.1
2022-09-29T14:15:36.624Z,4.2
2022-09-29T14:20:36.719Z,4.2
2022-09-29T14:25:36.593Z,4.8
2022-09-29T14:30:36.816Z,5.1
2022-09-29T14:35:39.692Z,5.3
2022-09-29T14:40:36.647Z,5.5
2022-09-29T14:45:36.580Z,5.3
2022-09-29T14:50:36.659Z,5.5
2022-09-29T14:55:36.582Z,5.9
2022-09-29T15:00:37.667Z,6.7
2022-09-29T15:05:36.758Z,6.7
2022-09-29T15:10:36.666Z,7.4
2022-09-29T15:15:36.550Z,6.7
2022-09-29T15:36:02.278Z,22.4
2022-09-29T15:40:55.617Z,17.2
2022-09-29T15:45:55.587Z,12
2022-09-29T15:50:55.651Z,11.15
2022-09-29T15:55:55.670Z,10.3
2022-09-29T16:00:55.587Z,10.65
2022-09-29T16:05:55.715Z,10.4
2022-09-29T16:16:07.000Z,9.6
2022-09-29T16:21:01.728Z,9.2
2022-09-29T16:25:55.589Z,8.8
2022-09-29T16:30:55.612Z,8.65
2022-09-29T16:35:55.578Z,8.8
2022-09-29T16:40:55.614Z,9.2
2022-09-29T16:45:55.708Z,8.8
2022-09-29T16:50:55.624Z,8.5
2022-09-29T16:55:55.627Z,8.4
2022-09-29T17:00:55.592Z,8.4
2022-09-29T17:05:55.616Z,8
2022-09-29T17:10:55.581Z,7.8
2022-09-29T17:15:55.647Z,7.3
2022-09-29T17:20:55.642Z,6.8
2022-09-29T17:25:55.677Z,6.8
2022-09-29T17:30:55.840Z,6.1
2022-09-29T17:35:57.637Z,6.1
2022-09-29T17:40:55.637Z,6.1
2022-09-29T17:45:55.627Z,6.1
2022-09-29T17:50:56.043Z,6.8
2022-09-29T17:55:55.637Z,6.8
2022-09-29T18:00:56.200Z,6.6
2022-09-29T18:05:55.629Z,6.9
2022-09-29T18:10:55.666Z,6.9
2022-09-29T18:15:55.846Z,6.9
2022-09-29T18:20:55.672Z,6.9
2022-09-29T18:25:55.624Z,7.9
2022-09-29T18:30:55.664Z,7.9
2022-09-29T18:35:55.644Z,8.5
2022-09-29T18:40:55.693Z,8.5
2022-09-29T18:45:57.648Z,8.6
2022-09-29T18:50:55.676Z,8.6
2022-09-29T18:55:55.675Z,8.6
2022-09-29T19:00:55.659Z,9.9
2022-09-29T19:05:55.664Z,10.1
2022-09-29T19:10:55.660Z,10.2
2022-09-29T19:15:55.705Z,10.6
2022-09-29T19:20:55.733Z,72.7
2022-09-29T19:25:55.692Z,72.7
2022-09-29T19:30:55.647Z,72.7
2022-09-29T19:35:55.833Z,72.7
2022-09-29T19:40:55.672Z,23.7
2022-09-29T19:45:55.646Z,23.7
2022-09-29T19:50:55.665Z,23.7
2022-09-29T19:55:55.685Z,23.7
2022-09-29T20:00:55.651Z,32
2022-09-29T20:05:55.649Z,34.4
2022-09-29T20:10:55.693Z,38.7
2022-09-29T20:15:55.671Z,38.7
2022-09-29T20:20:55.674Z,38.7
2022-09-29T20:25:55.671Z,38.7
2022-09-29T20:30:55.668Z,44.3
2022-09-29T20:35:55.717Z,44.3
2022-09-29T20:40:55.698Z,44.3
2022-09-29T20:45:55.693Z,26.6
2022-09-29T20:50:55.672Z,26.6
2022-09-29T20:55:55.667Z,26.6
2022-09-29T21:00:55.633Z,23.9
2022-09-29T21:05:55.720Z,23.8
2022-09-29T21:10:55.698Z,22.3
2022-09-29T21:15:55.720Z,22.3
2022-09-29T21:20:55.773Z,22.3
2022-09-29T21:25:55.750Z,21.8
2022-09-29T21:30:55.684Z,21.8
2022-09-29T21:35:55.707Z,22.6
2022-09-29T21:40:55.728Z,23
2022-09-29T21:45:55.641Z,23
2022-09-29T21:50:55.670Z,22.6
2022-09-29T21:55:55.767Z,22.5
2022-09-29T22:00:55.721Z,22.5
2022-09-29T22:05:55.721Z,21.6
2022-09-29T22:10:55.808Z,20.5
2022-09-29T22:15:55.752Z,18.7
2022-09-29T22:20:55.759Z,17.7
2022-09-29T22:25:55.723Z,14.5
2022-09-29T22:30:55.775Z,13.5
2022-09-29T22:35:55.725Z,13.1
2022-09-29T22:40:55.701Z,13.1
2022-09-29T22:45:55.662Z,13.1
2022-09-29T22:50:55.730Z,11.9
2022-09-29T22:55:55.701Z,11.7
2022-09-29T23:00:55.678Z,11.7
2022-09-29T23:05:55.683Z,12.3
2022-09-29T23:10:55.769Z,12.3
2022-09-29T23:15:55.774Z,11.5
2022-09-29T23:20:55.762Z,11.5
2022-09-29T23:25:55.714Z,10.9
2022-09-29T23:30:55.766Z,10.8
2022-09-29T23:35:55.779Z,10.8
2022-09-29T23:40:55.827Z,10.7
2022-09-29T23:45:55.695Z,10.2
2022-09-29T23:50:55.698Z,10.2
2022-09-29T23:55:55.743Z,10.2
